Capt. John Reynolds — WDD6151 — position and weather

sailwx.info

Track history (hours):
 
Tides and Currents Weather Stations Pressure Air Temp Water Temp Dewpoint Dewpoint Depression Visibility Wind Speed Wind Dir Waves Ship Positions

Capt. John Reynolds

Owner: AEP River Operations LLC, Chesterfield, MO. More information available from US FCC via Universal Licensing System and Coast Guard Vessel Documentation Center.

Last reported at 2015-Apr-14 04:32 UTC. Time now 2015-Jul-07 19:46 UTC.
Position N 38°56' W 084°52'.
Warning: this ship's position is months out of date.

Length 47 m; draft 3.3 m.

Type: Towing. MMSI: 367168950.

Date/timePositionNaut miles runAvg speedWind from/ knotsBaromVisibWave heightAir tempDewpointWater temp
2015-Apr-14 04:32N 38°56' W 084°52'7 6.1
2015-Apr-14 03:26N 39°02' W 084°53'6 6.0
2015-Apr-14 02:29N 39°07' W 084°48'5 5.3
2015-Apr-14 01:33N 39°06' W 084°42'0 0.4
2015-Apr-14 00:28N 39°06' W 084°41'0 0.0
2015-Apr-13 23:31N 39°06' W 084°41'0 0.0
2015-Apr-13 22:31N 39°06' W 084°41'0 0.0
2015-Apr-13 21:25N 39°06' W 084°41'0 0.0
2015-Apr-13 19:28N 39°06' W 084°41'0 0.0
2015-Apr-13 18:29N 39°06' W 084°41'0 0.0
2015-Apr-13 17:31N 39°06' W 084°41'0 0.0
2015-Apr-13 16:31N 39°06' W 084°41'0 0.0
2015-Apr-13 15:22N 39°06' W 084°41'0 0.0
2015-Apr-13 14:32N 39°06' W 084°41'1 1.5
2015-Apr-13 13:32N 39°06' W 084°39'5 4.6
2015-Apr-13 12:32N 39°06' W 084°33'5 5.5
2015-Apr-13 11:33N 39°07' W 084°27'2 2.2
2015-Apr-13 10:32N 39°04' W 084°26'0 0.0
2015-Apr-13 09:32N 39°04' W 084°26'0 0.0
2015-Apr-13 08:32N 39°04' W 084°26'0 0.0
2015-Apr-13 07:26N 39°04' W 084°26'3 3.2
2015-Apr-13 06:33N 39°03' W 084°23'6 5.7
2015-Apr-13 05:33N 38°59' W 084°18'7 7.2
2015-Apr-13 04:33N 38°52' W 084°14'1 0.9
2015-Apr-13 03:07N 38°51' W 084°14'0 0.1
2015-Apr-13 02:28N 38°51' W 084°14'0 0.2
2015-Apr-13 01:28N 38°51' W 084°14'74 4.3
2015-Apr-12 08:19N 38°32' W 082°42'73 1.7
2015-Apr-10 13:33N 38°49' W 084°13'4 3.5
2015-Apr-10 12:33N 38°52' W 084°14'3 3.4
2015-Apr-10 11:32N 38°55' W 084°16'4 3.7
2015-Apr-10 10:31N 38°59' W 084°18'3 3.3
2015-Apr-10 09:33N 39°02' W 084°20'4 3.7
2015-Apr-10 08:32N 39°03' W 084°24'3 3.5
2015-Apr-10 07:33N 39°06' W 084°26'3 2.8
2015-Apr-10 06:32N 39°06' W 084°30'2 2.2
2015-Apr-10 05:33N 39°06' W 084°33'2 2.3
2015-Apr-10 04:30N 39°05' W 084°35'3 2.7
2015-Apr-10 03:33N 39°05' W 084°38'4 3.4
2015-Apr-10 02:30N 39°07' W 084°42'3 3.1
2015-Apr-10 01:33N 39°08' W 084°46'4 3.6
2015-Apr-10 00:21N 39°06' W 084°50'3 3.3
2015-Apr-09 23:33N 39°04' W 084°53'10 2.4
2015-Apr-09 19:16N 38°54' W 084°50'  
Track history (hours):
 
Tides and Currents Weather Stations Pressure Air Temp Water Temp Dewpoint Dewpoint Depression Visibility Wind Speed Wind Dir Waves Ship Positions

Capt. John Reynolds

Owner: AEP River Operations LLC, Chesterfield, MO. More information available from US FCC via Universal Licensing System and Coast Guard Vessel Documentation Center.

Last reported at 2015-Apr-14 04:32 UTC. Time now 2015-Jul-07 19:46 UTC.
Position N 38°56' W 084°52'.
Warning: this ship's position is months out of date.

Length 47 m; draft 3.3 m.

Type: Towing. MMSI: 367168950.

Date/timePositionNaut miles runAvg speedWind from/ knotsBaromVisibWave heightAir tempDewpointWater temp
2015-Apr-14 04:32N 38°56' W 084°52'7 6.1
2015-Apr-14 03:26N 39°02' W 084°53'6 6.0
2015-Apr-14 02:29N 39°07' W 084°48'5 5.3
2015-Apr-14 01:33N 39°06' W 084°42'0 0.4
2015-Apr-14 00:28N 39°06' W 084°41'0 0.0
2015-Apr-13 23:31N 39°06' W 084°41'0 0.0
2015-Apr-13 22:31N 39°06' W 084°41'0 0.0
2015-Apr-13 21:25N 39°06' W 084°41'0 0.0
2015-Apr-13 19:28N 39°06' W 084°41'0 0.0
2015-Apr-13 18:29N 39°06' W 084°41'0 0.0
2015-Apr-13 17:31N 39°06' W 084°41'0 0.0
2015-Apr-13 16:31N 39°06' W 084°41'0 0.0
2015-Apr-13 15:22N 39°06' W 084°41'0 0.0
2015-Apr-13 14:32N 39°06' W 084°41'1 1.5
2015-Apr-13 13:32N 39°06' W 084°39'5 4.6
2015-Apr-13 12:32N 39°06' W 084°33'5 5.5
2015-Apr-13 11:33N 39°07' W 084°27'2 2.2
2015-Apr-13 10:32N 39°04' W 084°26'0 0.0
2015-Apr-13 09:32N 39°04' W 084°26'0 0.0
2015-Apr-13 08:32N 39°04' W 084°26'0 0.0
2015-Apr-13 07:26N 39°04' W 084°26'3 3.2
2015-Apr-13 06:33N 39°03' W 084°23'6 5.7
2015-Apr-13 05:33N 38°59' W 084°18'7 7.2
2015-Apr-13 04:33N 38°52' W 084°14'1 0.9
2015-Apr-13 03:07N 38°51' W 084°14'0 0.1
2015-Apr-13 02:28N 38°51' W 084°14'0 0.2
2015-Apr-13 01:28N 38°51' W 084°14'74 4.3
2015-Apr-12 08:19N 38°32' W 082°42'73 1.7
2015-Apr-10 13:33N 38°49' W 084°13'4 3.5
2015-Apr-10 12:33N 38°52' W 084°14'3 3.4
2015-Apr-10 11:32N 38°55' W 084°16'4 3.7
2015-Apr-10 10:31N 38°59' W 084°18'3 3.3
2015-Apr-10 09:33N 39°02' W 084°20'4 3.7
2015-Apr-10 08:32N 39°03' W 084°24'3 3.5
2015-Apr-10 07:33N 39°06' W 084°26'3 2.8
2015-Apr-10 06:32N 39°06' W 084°30'2 2.2
2015-Apr-10 05:33N 39°06' W 084°33'2 2.3
2015-Apr-10 04:30N 39°05' W 084°35'3 2.7
2015-Apr-10 03:33N 39°05' W 084°38'4 3.4
2015-Apr-10 02:30N 39°07' W 084°42'3 3.1
2015-Apr-10 01:33N 39°08' W 084°46'4 3.6
2015-Apr-10 00:21N 39°06' W 084°50'3 3.3
2015-Apr-09 23:33N 39°04' W 084°53'10 2.4
2015-Apr-09 19:16N 38°54' W 084°50'  

Dump ship's entire track history